sensor_id;sensor_type;location;lat;lon;timestamp;P1;durP1;ratioP1;P2;durP2;ratioP2
59950;SDS011;45812;53.540;9.774;2022-12-29T00:01:29;6.03;;;3.30;;
59950;SDS011;45812;53.540;9.774;2022-12-29T00:03:55;8.00;;;4.05;;
59950;SDS011;45812;53.540;9.774;2022-12-29T00:06:21;5.75;;;3.83;;
59950;SDS011;45812;53.540;9.774;2022-12-29T00:08:46;8.15;;;3.92;;
59950;SDS011;45812;53.540;9.774;2022-12-29T00:11:12;9.00;;;4.00;;
59950;SDS011;45812;53.540;9.774;2022-12-29T00:13:45;5.50;;;3.92;;
59950;SDS011;45812;53.540;9.774;2022-12-29T00:16:30;4.25;;;3.67;;
59950;SDS011;45812;53.540;9.774;2022-12-29T00:18:58;8.32;;;3.50;;
59950;SDS011;45812;53.540;9.774;2022-12-29T00:21:23;5.05;;;3.65;;
59950;SDS011;45812;53.540;9.774;2022-12-29T00:24:09;5.28;;;3.28;;
59950;SDS011;45812;53.540;9.774;2022-12-29T00:26:53;6.10;;;4.00;;
59950;SDS011;45812;53.540;9.774;2022-12-29T00:29:40;4.10;;;3.50;;
59950;SDS011;45812;53.540;9.774;2022-12-29T00:32:24;9.77;;;4.38;;
59950;SDS011;45812;53.540;9.774;2022-12-29T00:35:11;4.60;;;3.65;;
59950;SDS011;45812;53.540;9.774;2022-12-29T00:37:44;4.65;;;3.67;;
59950;SDS011;45812;53.540;9.774;2022-12-29T00:40:31;8.18;;;4.50;;
59950;SDS011;45812;53.540;9.774;2022-12-29T00:43:14;5.40;;;4.18;;
59950;SDS011;45812;53.540;9.774;2022-12-29T00:45:58;7.75;;;3.85;;
59950;SDS011;45812;53.540;9.774;2022-12-29T00:48:23;4.88;;;3.63;;
59950;SDS011;45812;53.540;9.774;2022-12-29T00:51:07;7.85;;;4.00;;
59950;SDS011;45812;53.540;9.774;2022-12-29T00:53:33;4.07;;;3.67;;
59950;SDS011;45812;53.540;9.774;2022-12-29T00:55:59;4.38;;;3.63;;
59950;SDS011;45812;53.540;9.774;2022-12-29T00:58:28;5.35;;;3.55;;
59950;SDS011;45812;53.540;9.774;2022-12-29T01:01:02;5.43;;;3.35;;
59950;SDS011;45812;53.540;9.774;2022-12-29T01:03:28;5.60;;;3.47;;
59950;SDS011;45812;53.540;9.774;2022-12-29T01:05:54;4.18;;;3.38;;
59950;SDS011;45812;53.540;9.774;2022-12-29T01:08:19;6.53;;;3.70;;
59950;SDS011;45812;53.540;9.774;2022-12-29T01:10:44;5.38;;;3.50;;
59950;SDS011;45812;53.540;9.774;2022-12-29T01:13:09;3.50;;;3.20;;
59950;SDS011;45812;53.540;9.774;2022-12-29T01:15:35;6.78;;;3.80;;
59950;SDS011;45812;53.540;9.774;2022-12-29T01:18:00;4.35;;;3.22;;
59950;SDS011;45812;53.540;9.774;2022-12-29T01:20:25;3.15;;;2.80;;
59950;SDS011;45812;53.540;9.774;2022-12-29T01:22:52;4.05;;;3.13;;
59950;SDS011;45812;53.540;9.774;2022-12-29T01:25:17;3.38;;;3.00;;
59950;SDS011;45812;53.540;9.774;2022-12-29T01:27:42;6.57;;;3.80;;
59950;SDS011;45812;53.540;9.774;2022-12-29T01:30:08;4.43;;;3.00;;
59950;SDS011;45812;53.540;9.774;2022-12-29T01:32:33;3.67;;;3.22;;
59950;SDS011;45812;53.540;9.774;2022-12-29T01:34:59;5.03;;;2.95;;
59950;SDS011;45812;53.540;9.774;2022-12-29T01:37:25;4.25;;;3.53;;
59950;SDS011;45812;53.540;9.774;2022-12-29T01:39:50;3.72;;;3.33;;
59950;SDS011;45812;53.540;9.774;2022-12-29T01:42:16;4.57;;;3.60;;
59950;SDS011;45812;53.540;9.774;2022-12-29T01:44:53;5.80;;;4.20;;
59950;SDS011;45812;53.540;9.774;2022-12-29T01:49:55;5.07;;;3.53;;
59950;SDS011;45812;53.540;9.774;2022-12-29T01:52:24;11.38;;;3.85;;
59950;SDS011;45812;53.540;9.774;2022-12-29T01:54:53;4.93;;;4.03;;
59950;SDS011;45812;53.540;9.774;2022-12-29T01:57:26;5.63;;;4.00;;
59950;SDS011;45812;53.540;9.774;2022-12-29T01:59:59;4.63;;;3.78;;
59950;SDS011;45812;53.540;9.774;2022-12-29T02:02:32;8.18;;;4.20;;
59950;SDS011;45812;53.540;9.774;2022-12-29T02:04:58;7.20;;;4.70;;
59950;SDS011;45812;53.540;9.774;2022-12-29T02:07:26;7.68;;;4.40;;
59950;SDS011;45812;53.540;9.774;2022-12-29T02:09:53;4.97;;;3.97;;
59950;SDS011;45812;53.540;9.774;2022-12-29T02:12:20;10.02;;;4.88;;
59950;SDS011;45812;53.540;9.774;2022-12-29T02:14:47;5.72;;;4.18;;
59950;SDS011;45812;53.540;9.774;2022-12-29T02:17:20;5.88;;;4.13;;
59950;SDS011;45812;53.540;9.774;2022-12-29T02:25:53;5.88;;;4.28;;
59950;SDS011;45812;53.540;9.774;2022-12-29T02:31:39;6.50;;;3.67;;
59950;SDS011;45812;53.540;9.774;2022-12-29T02:34:29;4.60;;;4.05;;
59950;SDS011;45812;53.540;9.774;2022-12-29T02:37:12;5.00;;;3.80;;
59950;SDS011;45812;53.540;9.774;2022-12-29T02:40:00;5.28;;;3.97;;
59950;SDS011;45812;53.540;9.774;2022-12-29T02:42:49;4.35;;;3.53;;
59950;SDS011;45812;53.540;9.774;2022-12-29T02:50:55;4.55;;;3.47;;
59950;SDS011;45812;53.540;9.774;2022-12-29T02:53:25;6.25;;;4.00;;
59950;SDS011;45812;53.540;9.774;2022-12-29T02:56:11;4.20;;;3.60;;
59950;SDS011;45812;53.540;9.774;2022-12-29T02:58:36;4.50;;;3.80;;
59950;SDS011;45812;53.540;9.774;2022-12-29T03:01:21;5.90;;;3.90;;
59950;SDS011;45812;53.540;9.774;2022-12-29T03:04:05;6.13;;;3.58;;
59950;SDS011;45812;53.540;9.774;2022-12-29T03:06:49;3.90;;;3.40;;
59950;SDS011;45812;53.540;9.774;2022-12-29T03:15:23;6.45;;;3.38;;
59950;SDS011;45812;53.540;9.774;2022-12-29T03:23:44;4.72;;;3.50;;
59950;SDS011;45812;53.540;9.774;2022-12-29T03:26:13;4.15;;;3.35;;
59950;SDS011;45812;53.540;9.774;2022-12-29T03:28:42;5.90;;;3.67;;
59950;SDS011;45812;53.540;9.774;2022-12-29T03:31:22;4.07;;;3.17;;
59950;SDS011;45812;53.540;9.774;2022-12-29T03:33:48;4.20;;;3.25;;
59950;SDS011;45812;53.540;9.774;2022-12-29T03:36:20;4.20;;;3.13;;
59950;SDS011;45812;53.540;9.774;2022-12-29T03:38:58;4.30;;;3.03;;
59950;SDS011;45812;53.540;9.774;2022-12-29T03:41:28;3.63;;;3.30;;
59950;SDS011;45812;53.540;9.774;2022-12-29T03:43:56;3.33;;;3.00;;
59950;SDS011;45812;53.540;9.774;2022-12-29T03:46:22;4.35;;;3.25;;
59950;SDS011;45812;53.540;9.774;2022-12-29T03:48:47;3.35;;;3.05;;
59950;SDS011;45812;53.540;9.774;2022-12-29T03:51:12;3.75;;;3.33;;
59950;SDS011;45812;53.540;9.774;2022-12-29T03:53:37;3.95;;;3.17;;
59950;SDS011;45812;53.540;9.774;2022-12-29T03:56:03;4.47;;;3.47;;
59950;SDS011;45812;53.540;9.774;2022-12-29T03:58:29;2.72;;;2.53;;
59950;SDS011;45812;53.540;9.774;2022-12-29T04:00:54;3.55;;;3.05;;
59950;SDS011;45812;53.540;9.774;2022-12-29T04:03:19;3.70;;;3.00;;
59950;SDS011;45812;53.540;9.774;2022-12-29T04:05:45;2.67;;;2.47;;
59950;SDS011;45812;53.540;9.774;2022-12-29T04:08:10;3.17;;;2.88;;
59950;SDS011;45812;53.540;9.774;2022-12-29T04:10:35;3.10;;;2.80;;
59950;SDS011;45812;53.540;9.774;2022-12-29T04:13:00;5.03;;;2.97;;
59950;SDS011;45812;53.540;9.774;2022-12-29T04:15:26;2.60;;;2.45;;
59950;SDS011;45812;53.540;9.774;2022-12-29T04:17:51;2.50;;;2.30;;
59950;SDS011;45812;53.540;9.774;2022-12-29T04:20:16;3.03;;;2.67;;
59950;SDS011;45812;53.540;9.774;2022-12-29T04:23:04;4.25;;;2.00;;
59950;SDS011;45812;53.540;9.774;2022-12-29T04:25:30;2.47;;;2.30;;
59950;SDS011;45812;53.540;9.774;2022-12-29T04:27:57;2.60;;;2.05;;
59950;SDS011;45812;53.540;9.774;2022-12-29T04:30:22;2.28;;;2.08;;
59950;SDS011;45812;53.540;9.774;2022-12-29T04:32:47;2.00;;;1.90;;
59950;SDS011;45812;53.540;9.774;2022-12-29T04:35:13;1.60;;;1.50;;
59950;SDS011;45812;53.540;9.774;2022-12-29T04:37:38;2.78;;;2.35;;
59950;SDS011;45812;53.540;9.774;2022-12-29T04:40:03;1.90;;;1.80;;
59950;SDS011;45812;53.540;9.774;2022-12-29T04:42:29;5.38;;;1.80;;
59950;SDS011;45812;53.540;9.774;2022-12-29T04:44:54;2.40;;;1.48;;
59950;SDS011;45812;53.540;9.774;2022-12-29T04:47:19;2.92;;;2.08;;
59950;SDS011;45812;53.540;9.774;2022-12-29T04:49:45;2.05;;;1.85;;
59950;SDS011;45812;53.540;9.774;2022-12-29T04:52:10;2.20;;;2.10;;
59950;SDS011;45812;53.540;9.774;2022-12-29T04:54:35;1.85;;;1.75;;
59950;SDS011;45812;53.540;9.774;2022-12-29T04:57:01;3.05;;;1.85;;
59950;SDS011;45812;53.540;9.774;2022-12-29T04:59:26;2.13;;;1.95;;
59950;SDS011;45812;53.540;9.774;2022-12-29T05:01:51;2.13;;;1.92;;
59950;SDS011;45812;53.540;9.774;2022-12-29T05:04:17;1.65;;;1.50;;
59950;SDS011;45812;53.540;9.774;2022-12-29T05:06:42;3.22;;;2.10;;
59950;SDS011;45812;53.540;9.774;2022-12-29T05:09:07;2.22;;;2.05;;
59950;SDS011;45812;53.540;9.774;2022-12-29T05:11:32;5.35;;;2.10;;
59950;SDS011;45812;53.540;9.774;2022-12-29T05:13:57;2.15;;;1.95;;
59950;SDS011;45812;53.540;9.774;2022-12-29T05:16:23;2.45;;;2.28;;
59950;SDS011;45812;53.540;9.774;2022-12-29T05:18:48;2.58;;;2.38;;
59950;SDS011;45812;53.540;9.774;2022-12-29T05:21:13;3.83;;;2.20;;
59950;SDS011;45812;53.540;9.774;2022-12-29T05:23:38;4.63;;;2.60;;
59950;SDS011;45812;53.540;9.774;2022-12-29T05:26:04;2.58;;;2.38;;
59950;SDS011;45812;53.540;9.774;2022-12-29T05:28:29;3.92;;;2.90;;
59950;SDS011;45812;53.540;9.774;2022-12-29T05:30:54;2.92;;;2.60;;
59950;SDS011;45812;53.540;9.774;2022-12-29T05:33:20;2.90;;;2.60;;
59950;SDS011;45812;53.540;9.774;2022-12-29T05:35:45;3.05;;;2.75;;
59950;SDS011;45812;53.540;9.774;2022-12-29T05:38:11;3.08;;;2.78;;
59950;SDS011;45812;53.540;9.774;2022-12-29T05:40:36;3.45;;;2.80;;
59950;SDS011;45812;53.540;9.774;2022-12-29T05:43:01;2.88;;;2.67;;
59950;SDS011;45812;53.540;9.774;2022-12-29T05:45:27;3.80;;;2.85;;
59950;SDS011;45812;53.540;9.774;2022-12-29T05:47:52;2.90;;;2.60;;
59950;SDS011;45812;53.540;9.774;2022-12-29T05:50:17;3.03;;;2.72;;
59950;SDS011;45812;53.540;9.774;2022-12-29T05:52:42;3.28;;;2.72;;
59950;SDS011;45812;53.540;9.774;2022-12-29T05:55:08;2.40;;;2.20;;
59950;SDS011;45812;53.540;9.774;2022-12-29T05:57:33;2.17;;;2.08;;
59950;SDS011;45812;53.540;9.774;2022-12-29T05:59:59;2.83;;;2.63;;
59950;SDS011;45812;53.540;9.774;2022-12-29T06:02:24;2.92;;;2.65;;
59950;SDS011;45812;53.540;9.774;2022-12-29T06:04:50;2.60;;;2.40;;
59950;SDS011;45812;53.540;9.774;2022-12-29T06:07:15;2.38;;;2.17;;
59950;SDS011;45812;53.540;9.774;2022-12-29T06:09:40;3.40;;;2.40;;
59950;SDS011;45812;53.540;9.774;2022-12-29T06:12:05;3.28;;;1.42;;
59950;SDS011;45812;53.540;9.774;2022-12-29T06:14:31;2.20;;;1.83;;
59950;SDS011;45812;53.540;9.774;2022-12-29T06:16:56;2.53;;;2.25;;
59950;SDS011;45812;53.540;9.774;2022-12-29T06:19:21;1.77;;;1.67;;
59950;SDS011;45812;53.540;9.774;2022-12-29T06:21:47;1.80;;;1.70;;
59950;SDS011;45812;53.540;9.774;2022-12-29T06:24:12;2.13;;;2.00;;
59950;SDS011;45812;53.540;9.774;2022-12-29T06:26:37;2.45;;;2.17;;
59950;SDS011;45812;53.540;9.774;2022-12-29T06:29:02;1.60;;;1.50;;
59950;SDS011;45812;53.540;9.774;2022-12-29T06:31:28;2.95;;;2.00;;
59950;SDS011;45812;53.540;9.774;2022-12-29T06:33:53;2.05;;;1.80;;
59950;SDS011;45812;53.540;9.774;2022-12-29T06:36:18;2.28;;;2.08;;
59950;SDS011;45812;53.540;9.774;2022-12-29T06:38:43;2.00;;;1.90;;
59950;SDS011;45812;53.540;9.774;2022-12-29T06:41:09;7.75;;;2.42;;
59950;SDS011;45812;53.540;9.774;2022-12-29T06:43:34;4.05;;;2.30;;
59950;SDS011;45812;53.540;9.774;2022-12-29T06:46:02;2.03;;;1.92;;
59950;SDS011;45812;53.540;9.774;2022-12-29T06:48:28;2.33;;;2.13;;
59950;SDS011;45812;53.540;9.774;2022-12-29T06:50:53;2.65;;;2.10;;
59950;SDS011;45812;53.540;9.774;2022-12-29T06:53:19;5.93;;;2.42;;
59950;SDS011;45812;53.540;9.774;2022-12-29T06:55:44;2.20;;;2.10;;
59950;SDS011;45812;53.540;9.774;2022-12-29T06:58:09;4.95;;;1.95;;
59950;SDS011;45812;53.540;9.774;2022-12-29T07:00:34;2.00;;;1.90;;
59950;SDS011;45812;53.540;9.774;2022-12-29T07:02:59;2.40;;;1.77;;
59950;SDS011;45812;53.540;9.774;2022-12-29T07:05:25;1.40;;;1.27;;
59950;SDS011;45812;53.540;9.774;2022-12-29T07:07:52;5.18;;;1.85;;
59950;SDS011;45812;53.540;9.774;2022-12-29T07:10:18;2.40;;;1.95;;
59950;SDS011;45812;53.540;9.774;2022-12-29T07:12:43;2.17;;;1.73;;
59950;SDS011;45812;53.540;9.774;2022-12-29T07:15:09;2.03;;;1.83;;
59950;SDS011;45812;53.540;9.774;2022-12-29T07:17:34;2.03;;;1.92;;
59950;SDS011;45812;53.540;9.774;2022-12-29T07:20:00;2.05;;;1.95;;
59950;SDS011;45812;53.540;9.774;2022-12-29T07:22:25;1.92;;;1.83;;
59950;SDS011;45812;53.540;9.774;2022-12-29T07:24:50;2.38;;;2.10;;
59950;SDS011;45812;53.540;9.774;2022-12-29T07:27:15;4.63;;;2.50;;
59950;SDS011;45812;53.540;9.774;2022-12-29T07:29:41;2.17;;;2.00;;
59950;SDS011;45812;53.540;9.774;2022-12-29T07:32:06;5.45;;;2.67;;
59950;SDS011;45812;53.540;9.774;2022-12-29T07:34:31;4.45;;;1.90;;
59950;SDS011;45812;53.540;9.774;2022-12-29T07:36:56;2.38;;;2.10;;
59950;SDS011;45812;53.540;9.774;2022-12-29T07:39:22;1.88;;;1.65;;
59950;SDS011;45812;53.540;9.774;2022-12-29T07:41:47;3.50;;;2.03;;
59950;SDS011;45812;53.540;9.774;2022-12-29T07:44:12;2.70;;;1.80;;
59950;SDS011;45812;53.540;9.774;2022-12-29T07:46:37;2.03;;;1.92;;
59950;SDS011;45812;53.540;9.774;2022-12-29T07:49:02;3.42;;;2.10;;
59950;SDS011;45812;53.540;9.774;2022-12-29T07:51:28;1.45;;;1.35;;
59950;SDS011;45812;53.540;9.774;2022-12-29T07:53:53;1.67;;;1.58;;
59950;SDS011;45812;53.540;9.774;2022-12-29T07:56:18;5.70;;;1.85;;
59950;SDS011;45812;53.540;9.774;2022-12-29T07:58:43;1.38;;;1.30;;
59950;SDS011;45812;53.540;9.774;2022-12-29T08:01:09;5.18;;;1.85;;
59950;SDS011;45812;53.540;9.774;2022-12-29T08:03:34;2.90;;;2.22;;
59950;SDS011;45812;53.540;9.774;2022-12-29T08:06:01;1.98;;;1.42;;
59950;SDS011;45812;53.540;9.774;2022-12-29T08:08:26;1.38;;;1.27;;
59950;SDS011;45812;53.540;9.774;2022-12-29T08:10:53;1.67;;;1.20;;
59950;SDS011;45812;53.540;9.774;2022-12-29T08:13:19;1.75;;;1.38;;
59950;SDS011;45812;53.540;9.774;2022-12-29T08:15:47;1.30;;;1.20;;
59950;SDS011;45812;53.540;9.774;2022-12-29T08:18:12;1.27;;;1.25;;
59950;SDS011;45812;53.540;9.774;2022-12-29T08:20:37;1.73;;;1.23;;
59950;SDS011;45812;53.540;9.774;2022-12-29T08:23:02;6.05;;;1.80;;
59950;SDS011;45812;53.540;9.774;2022-12-29T08:25:28;3.85;;;1.92;;
59950;SDS011;45812;53.540;9.774;2022-12-29T08:27:53;3.28;;;1.67;;
59950;SDS011;45812;53.540;9.774;2022-12-29T08:30:18;2.85;;;1.90;;
59950;SDS011;45812;53.540;9.774;2022-12-29T08:32:43;2.10;;;1.85;;
59950;SDS011;45812;53.540;9.774;2022-12-29T08:35:08;2.50;;;1.40;;
59950;SDS011;45812;53.540;9.774;2022-12-29T08:37:34;3.58;;;1.40;;
59950;SDS011;45812;53.540;9.774;2022-12-29T08:39:59;2.20;;;1.65;;
59950;SDS011;45812;53.540;9.774;2022-12-29T08:42:28;1.33;;;1.23;;
59950;SDS011;45812;53.540;9.774;2022-12-29T08:44:55;2.03;;;1.50;;
59950;SDS011;45812;53.540;9.774;2022-12-29T08:47:21;1.58;;;1.35;;
59950;SDS011;45812;53.540;9.774;2022-12-29T08:49:47;3.38;;;1.27;;
59950;SDS011;45812;53.540;9.774;2022-12-29T08:52:12;1.10;;;1.00;;
59950;SDS011;45812;53.540;9.774;2022-12-29T08:54:37;3.47;;;1.40;;
59950;SDS011;45812;53.540;9.774;2022-12-29T08:57:02;1.73;;;0.80;;
59950;SDS011;45812;53.540;9.774;2022-12-29T08:59:28;3.63;;;1.38;;
59950;SDS011;45812;53.540;9.774;2022-12-29T09:01:53;1.38;;;1.25;;
59950;SDS011;45812;53.540;9.774;2022-12-29T09:04:18;3.38;;;1.42;;
59950;SDS011;45812;53.540;9.774;2022-12-29T09:06:44;2.08;;;1.10;;
59950;SDS011;45812;53.540;9.774;2022-12-29T09:09:09;1.40;;;0.90;;
59950;SDS011;45812;53.540;9.774;2022-12-29T09:11:35;2.78;;;1.05;;
59950;SDS011;45812;53.540;9.774;2022-12-29T09:14:01;2.65;;;1.33;;
59950;SDS011;45812;53.540;9.774;2022-12-29T09:16:26;4.22;;;1.17;;
59950;SDS011;45812;53.540;9.774;2022-12-29T09:18:52;2.08;;;0.85;;
59950;SDS011;45812;53.540;9.774;2022-12-29T09:21:17;2.58;;;0.60;;
59950;SDS011;45812;53.540;9.774;2022-12-29T09:23:43;2.70;;;1.40;;
59950;SDS011;45812;53.540;9.774;2022-12-29T09:26:08;2.90;;;0.93;;
59950;SDS011;45812;53.540;9.774;2022-12-29T09:28:34;1.25;;;0.80;;
59950;SDS011;45812;53.540;9.774;2022-12-29T09:31:00;4.38;;;1.17;;
59950;SDS011;45812;53.540;9.774;2022-12-29T09:33:25;3.28;;;1.13;;
59950;SDS011;45812;53.540;9.774;2022-12-29T09:35:52;1.00;;;0.90;;
59950;SDS011;45812;53.540;9.774;2022-12-29T09:38:19;3.83;;;1.23;;
59950;SDS011;45812;53.540;9.774;2022-12-29T09:40:45;1.10;;;0.68;;
59950;SDS011;45812;53.540;9.774;2022-12-29T09:46:24;3.15;;;1.02;;
59950;SDS011;45812;53.540;9.774;2022-12-29T09:49:02;4.47;;;1.27;;
59950;SDS011;45812;53.540;9.774;2022-12-29T09:51:31;11.05;;;1.75;;
59950;SDS011;45812;53.540;9.774;2022-12-29T09:54:01;2.33;;;1.00;;
59950;SDS011;45812;53.540;9.774;2022-12-29T09:56:39;5.45;;;1.05;;
59950;SDS011;45812;53.540;9.774;2022-12-29T09:59:08;3.78;;;2.03;;
59950;SDS011;45812;53.540;9.774;2022-12-29T10:04:11;2.78;;;1.30;;
59950;SDS011;45812;53.540;9.774;2022-12-29T10:06:39;5.30;;;1.38;;
59950;SDS011;45812;53.540;9.774;2022-12-29T10:12:09;4.88;;;1.13;;
59950;SDS011;45812;53.540;9.774;2022-12-29T10:14:54;7.68;;;1.58;;
59950;SDS011;45812;53.540;9.774;2022-12-29T10:17:31;4.93;;;1.23;;
59950;SDS011;45812;53.540;9.774;2022-12-29T10:20:14;7.25;;;1.67;;
59950;SDS011;45812;53.540;9.774;2022-12-29T10:23:04;3.92;;;0.88;;
59950;SDS011;45812;53.540;9.774;2022-12-29T10:25:42;3.75;;;1.48;;
59950;SDS011;45812;53.540;9.774;2022-12-29T10:28:19;4.00;;;1.58;;
59950;SDS011;45812;53.540;9.774;2022-12-29T10:30:50;1.55;;;0.90;;
59950;SDS011;45812;53.540;9.774;2022-12-29T10:33:24;5.13;;;1.17;;
59950;SDS011;45812;53.540;9.774;2022-12-29T10:35:56;4.82;;;1.08;;
59950;SDS011;45812;53.540;9.774;2022-12-29T10:40:57;5.05;;;1.20;;
59950;SDS011;45812;53.540;9.774;2022-12-29T10:43:27;5.28;;;1.15;;
59950;SDS011;45812;53.540;9.774;2022-12-29T10:45:54;10.20;;;1.80;;
59950;SDS011;45812;53.540;9.774;2022-12-29T10:48:24;5.18;;;1.08;;
59950;SDS011;45812;53.540;9.774;2022-12-29T10:50:53;6.05;;;1.85;;
59950;SDS011;45812;53.540;9.774;2022-12-29T10:53:23;4.57;;;1.10;;
59950;SDS011;45812;53.540;9.774;2022-12-29T10:55:52;3.95;;;1.05;;
59950;SDS011;45812;53.540;9.774;2022-12-29T10:58:18;1.08;;;0.73;;
59950;SDS011;45812;53.540;9.774;2022-12-29T11:00:49;8.50;;;1.65;;
59950;SDS011;45812;53.540;9.774;2022-12-29T11:03:35;7.28;;;1.20;;
59950;SDS011;45812;53.540;9.774;2022-12-29T11:06:15;4.03;;;1.42;;
59950;SDS011;45812;53.540;9.774;2022-12-29T11:08:52;5.95;;;1.40;;
59950;SDS011;45812;53.540;9.774;2022-12-29T11:11:22;5.47;;;1.17;;
59950;SDS011;45812;53.540;9.774;2022-12-29T11:13:55;5.13;;;1.40;;
59950;SDS011;45812;53.540;9.774;2022-12-29T11:16:28;3.90;;;1.15;;
59950;SDS011;45812;53.540;9.774;2022-12-29T11:18:58;6.25;;;1.20;;
59950;SDS011;45812;53.540;9.774;2022-12-29T11:21:26;3.72;;;0.93;;
59950;SDS011;45812;53.540;9.774;2022-12-29T11:23:58;4.47;;;1.20;;
59950;SDS011;45812;53.540;9.774;2022-12-29T11:26:28;4.72;;;1.02;;
59950;SDS011;45812;53.540;9.774;2022-12-29T11:31:48;3.53;;;0.80;;
59950;SDS011;45812;53.540;9.774;2022-12-29T11:34:26;2.67;;;1.40;;
59950;SDS011;45812;53.540;9.774;2022-12-29T11:37:03;3.08;;;0.95;;
59950;SDS011;45812;53.540;9.774;2022-12-29T11:42:16;3.85;;;0.73;;
59950;SDS011;45812;53.540;9.774;2022-12-29T11:44:45;3.13;;;1.02;;
59950;SDS011;45812;53.540;9.774;2022-12-29T11:47:20;2.60;;;0.90;;
59950;SDS011;45812;53.540;9.774;2022-12-29T11:50:07;1.20;;;1.05;;
59950;SDS011;45812;53.540;9.774;2022-12-29T11:52:35;2.42;;;0.70;;
59950;SDS011;45812;53.540;9.774;2022-12-29T11:55:04;1.38;;;0.80;;
59950;SDS011;45812;53.540;9.774;2022-12-29T11:57:41;8.32;;;3.08;;
59950;SDS011;45812;53.540;9.774;2022-12-29T12:00:14;6.07;;;0.85;;
59950;SDS011;45812;53.540;9.774;2022-12-29T12:02:45;3.08;;;1.75;;
59950;SDS011;45812;53.540;9.774;2022-12-29T12:05:22;3.97;;;0.85;;
59950;SDS011;45812;53.540;9.774;2022-12-29T12:08:01;7.53;;;2.05;;
59950;SDS011;45812;53.540;9.774;2022-12-29T12:10:33;7.85;;;1.17;;
59950;SDS011;45812;53.540;9.774;2022-12-29T12:13:21;3.15;;;1.05;;
59950;SDS011;45812;53.540;9.774;2022-12-29T12:18:49;4.22;;;1.02;;
59950;SDS011;45812;53.540;9.774;2022-12-29T12:21:27;4.40;;;1.20;;
59950;SDS011;45812;53.540;9.774;2022-12-29T12:30:16;3.97;;;1.33;;
59950;SDS011;45812;53.540;9.774;2022-12-29T12:32:52;7.07;;;1.33;;
59950;SDS011;45812;53.540;9.774;2022-12-29T12:36:04;1.90;;;0.70;;
59950;SDS011;45812;53.540;9.774;2022-12-29T12:39:00;2.70;;;1.20;;
59950;SDS011;45812;53.540;9.774;2022-12-29T12:41:59;1.75;;;1.08;;
59950;SDS011;45812;53.540;9.774;2022-12-29T12:44:32;3.42;;;1.23;;
59950;SDS011;45812;53.540;9.774;2022-12-29T13:06:59;9.35;;;2.58;;
59950;SDS011;45812;53.540;9.774;2022-12-29T13:09:42;3.70;;;1.25;;
59950;SDS011;45812;53.540;9.774;2022-12-29T13:12:39;1.88;;;0.85;;
59950;SDS011;45812;53.540;9.774;2022-12-29T13:15:19;7.38;;;1.35;;
59950;SDS011;45812;53.540;9.774;2022-12-29T13:18:03;7.18;;;1.42;;
59950;SDS011;45812;53.540;9.774;2022-12-29T13:23:33;2.15;;;0.98;;
59950;SDS011;45812;53.540;9.774;2022-12-29T13:26:20;4.35;;;1.45;;
59950;SDS011;45812;53.540;9.774;2022-12-29T13:38:03;11.82;;;2.35;;
59950;SDS011;45812;53.540;9.774;2022-12-29T13:40:36;5.45;;;1.25;;
59950;SDS011;45812;53.540;9.774;2022-12-29T13:43:06;7.18;;;1.30;;
59950;SDS011;45812;53.540;9.774;2022-12-29T13:45:32;7.85;;;2.47;;
59950;SDS011;45812;53.540;9.774;2022-12-29T13:48:02;4.00;;;1.40;;
59950;SDS011;45812;53.540;9.774;2022-12-29T13:50:29;5.50;;;1.40;;
59950;SDS011;45812;53.540;9.774;2022-12-29T13:53:09;9.07;;;1.95;;
59950;SDS011;45812;53.540;9.774;2022-12-29T14:03:56;3.85;;;0.98;;
59950;SDS011;45812;53.540;9.774;2022-12-29T14:06:27;3.33;;;0.65;;
59950;SDS011;45812;53.540;9.774;2022-12-29T14:08:58;6.53;;;1.13;;
59950;SDS011;45812;53.540;9.774;2022-12-29T14:11:38;3.83;;;1.20;;
59950;SDS011;45812;53.540;9.774;2022-12-29T14:14:22;6.82;;;1.15;;
59950;SDS011;45812;53.540;9.774;2022-12-29T14:16:49;2.03;;;0.80;;
59950;SDS011;45812;53.540;9.774;2022-12-29T14:19:30;7.75;;;1.30;;
59950;SDS011;45812;53.540;9.774;2022-12-29T14:22:00;6.80;;;1.13;;
59950;SDS011;45812;53.540;9.774;2022-12-29T14:24:38;4.55;;;1.95;;
59950;SDS011;45812;53.540;9.774;2022-12-29T14:34:45;5.43;;;0.90;;
59950;SDS011;45812;53.540;9.774;2022-12-29T14:37:22;4.43;;;1.63;;
59950;SDS011;45812;53.540;9.774;2022-12-29T14:39:54;4.82;;;1.58;;
59950;SDS011;45812;53.540;9.774;2022-12-29T14:42:42;2.63;;;1.40;;
59950;SDS011;45812;53.540;9.774;2022-12-29T14:47:41;4.13;;;1.20;;
59950;SDS011;45812;53.540;9.774;2022-12-29T14:50:16;9.65;;;1.75;;
59950;SDS011;45812;53.540;9.774;2022-12-29T14:52:59;9.65;;;1.88;;
59950;SDS011;45812;53.540;9.774;2022-12-29T14:55:32;8.27;;;2.22;;
59950;SDS011;45812;53.540;9.774;2022-12-29T14:58:05;8.90;;;1.77;;
59950;SDS011;45812;53.540;9.774;2022-12-29T15:00:36;4.50;;;1.10;;
59950;SDS011;45812;53.540;9.774;2022-12-29T15:03:12;2.50;;;1.27;;
59950;SDS011;45812;53.540;9.774;2022-12-29T15:05:45;5.13;;;1.48;;
59950;SDS011;45812;53.540;9.774;2022-12-29T15:08:16;4.03;;;1.13;;
59950;SDS011;45812;53.540;9.774;2022-12-29T15:10:45;7.88;;;2.05;;
59950;SDS011;45812;53.540;9.774;2022-12-29T15:13:18;4.63;;;1.58;;
59950;SDS011;45812;53.540;9.774;2022-12-29T15:15:47;5.80;;;1.70;;
59950;SDS011;45812;53.540;9.774;2022-12-29T15:21:11;7.53;;;1.48;;
59950;SDS011;45812;53.540;9.774;2022-12-29T15:23:39;12.82;;;2.40;;
59950;SDS011;45812;53.540;9.774;2022-12-29T15:26:08;9.27;;;1.30;;
59950;SDS011;45812;53.540;9.774;2022-12-29T15:28:44;5.90;;;1.35;;
59950;SDS011;45812;53.540;9.774;2022-12-29T15:31:21;7.82;;;1.52;;
59950;SDS011;45812;53.540;9.774;2022-12-29T15:33:52;9.13;;;3.25;;
59950;SDS011;45812;53.540;9.774;2022-12-29T15:38:46;3.95;;;1.35;;
59950;SDS011;45812;53.540;9.774;2022-12-29T15:44:42;5.20;;;1.60;;
59950;SDS011;45812;53.540;9.774;2022-12-29T15:47:13;3.35;;;1.67;;
59950;SDS011;45812;53.540;9.774;2022-12-29T15:49:43;4.63;;;1.90;;
59950;SDS011;45812;53.540;9.774;2022-12-29T15:52:09;11.88;;;2.22;;
59950;SDS011;45812;53.540;9.774;2022-12-29T15:54:36;13.73;;;1.95;;
59950;SDS011;45812;53.540;9.774;2022-12-29T15:57:02;9.48;;;2.10;;
59950;SDS011;45812;53.540;9.774;2022-12-29T15:59:29;11.07;;;2.33;;
59950;SDS011;45812;53.540;9.774;2022-12-29T16:01:59;7.05;;;2.05;;
59950;SDS011;45812;53.540;9.774;2022-12-29T16:04:27;7.20;;;2.35;;
59950;SDS011;45812;53.540;9.774;2022-12-29T16:07:04;8.35;;;1.63;;
59950;SDS011;45812;53.540;9.774;2022-12-29T16:09:43;8.32;;;2.17;;
59950;SDS011;45812;53.540;9.774;2022-12-29T16:12:19;9.93;;;2.00;;
59950;SDS011;45812;53.540;9.774;2022-12-29T16:14:47;7.60;;;1.83;;
59950;SDS011;45812;53.540;9.774;2022-12-29T16:17:18;8.05;;;1.95;;
59950;SDS011;45812;53.540;9.774;2022-12-29T16:19:51;8.77;;;1.92;;
59950;SDS011;45812;53.540;9.774;2022-12-29T16:27:41;8.40;;;1.63;;
59950;SDS011;45812;53.540;9.774;2022-12-29T16:30:21;4.68;;;2.00;;
59950;SDS011;45812;53.540;9.774;2022-12-29T16:32:49;9.38;;;2.53;;
59950;SDS011;45812;53.540;9.774;2022-12-29T16:35:17;6.43;;;1.73;;
59950;SDS011;45812;53.540;9.774;2022-12-29T16:37:44;8.82;;;2.78;;
59950;SDS011;45812;53.540;9.774;2022-12-29T16:40:23;5.93;;;2.00;;
59950;SDS011;45812;53.540;9.774;2022-12-29T16:42:54;6.10;;;2.03;;
59950;SDS011;45812;53.540;9.774;2022-12-29T16:48:25;4.43;;;2.15;;
59950;SDS011;45812;53.540;9.774;2022-12-29T16:50:52;8.18;;;1.90;;
59950;SDS011;45812;53.540;9.774;2022-12-29T16:53:28;4.30;;;2.38;;
59950;SDS011;45812;53.540;9.774;2022-12-29T16:55:57;5.03;;;1.48;;
59950;SDS011;45812;53.540;9.774;2022-12-29T16:58:28;9.88;;;3.33;;
59950;SDS011;45812;53.540;9.774;2022-12-29T17:00:56;3.78;;;1.60;;
59950;SDS011;45812;53.540;9.774;2022-12-29T17:03:26;10.63;;;2.72;;
59950;SDS011;45812;53.540;9.774;2022-12-29T17:05:56;7.78;;;1.98;;
59950;SDS011;45812;53.540;9.774;2022-12-29T17:08:22;7.95;;;2.05;;